sensor_id;sensor_type;location;lat;lon;timestamp;temperature;humidity
50067;DHT22;35952;52.524;13.340;2023-12-20T00:01:17;7.50;99.90
50067;DHT22;35952;52.524;13.340;2023-12-20T00:03:42;7.50;99.90
50067;DHT22;35952;52.524;13.340;2023-12-20T00:06:08;7.50;99.90
50067;DHT22;35952;52.524;13.340;2023-12-20T00:08:34;7.50;99.90
50067;DHT22;35952;52.524;13.340;2023-12-20T00:10:59;7.50;99.90
50067;DHT22;35952;52.524;13.340;2023-12-20T00:13:25;7.50;99.90
50067;DHT22;35952;52.524;13.340;2023-12-20T00:15:50;7.40;99.90
50067;DHT22;35952;52.524;13.340;2023-12-20T00:18:15;7.50;99.90
50067;DHT22;35952;52.524;13.340;2023-12-20T00:20:41;7.50;99.90
50067;DHT22;35952;52.524;13.340;2023-12-20T00:23:07;7.60;99.90
50067;DHT22;35952;52.524;13.340;2023-12-20T00:25:33;7.60;99.90
50067;DHT22;35952;52.524;13.340;2023-12-20T00:27:59;7.60;99.90
50067;DHT22;35952;52.524;13.340;2023-12-20T00:30:25;7.60;99.90
50067;DHT22;35952;52.524;13.340;2023-12-20T00:32:50;7.50;99.90
50067;DHT22;35952;52.524;13.340;2023-12-20T00:35:16;7.50;99.90
50067;DHT22;35952;52.524;13.340;2023-12-20T00:37:45;7.60;99.90
50067;DHT22;35952;52.524;13.340;2023-12-20T00:40:11;7.60;99.90
50067;DHT22;35952;52.524;13.340;2023-12-20T00:42:36;7.60;99.90
50067;DHT22;35952;52.524;13.340;2023-12-20T00:45:02;7.60;99.90
50067;DHT22;35952;52.524;13.340;2023-12-20T00:47:30;7.60;99.90
50067;DHT22;35952;52.524;13.340;2023-12-20T00:49:55;7.60;99.90
50067;DHT22;35952;52.524;13.340;2023-12-20T00:52:21;7.60;99.90
50067;DHT22;35952;52.524;13.340;2023-12-20T00:54:48;7.50;99.90
50067;DHT22;35952;52.524;13.340;2023-12-20T00:57:13;7.60;99.90
50067;DHT22;35952;52.524;13.340;2023-12-20T00:59:39;7.60;99.90
50067;DHT22;35952;52.524;13.340;2023-12-20T01:02:04;7.60;99.90
50067;DHT22;35952;52.524;13.340;2023-12-20T01:04:30;7.60;99.90
50067;DHT22;35952;52.524;13.340;2023-12-20T01:06:55;7.50;99.90
50067;DHT22;35952;52.524;13.340;2023-12-20T01:09:21;7.50;99.90
50067;DHT22;35952;52.524;13.340;2023-12-20T01:11:49;7.50;99.90
50067;DHT22;35952;52.524;13.340;2023-12-20T01:14:14;7.50;99.90
50067;DHT22;35952;52.524;13.340;2023-12-20T01:16:40;7.50;99.90
50067;DHT22;35952;52.524;13.340;2023-12-20T01:19:05;7.50;99.90
50067;DHT22;35952;52.524;13.340;2023-12-20T01:21:32;7.50;99.90
50067;DHT22;35952;52.524;13.340;2023-12-20T01:23:57;7.50;99.90
50067;DHT22;35952;52.524;13.340;2023-12-20T01:26:23;7.50;99.90
50067;DHT22;35952;52.524;13.340;2023-12-20T01:28:48;7.50;99.90
50067;DHT22;35952;52.524;13.340;2023-12-20T01:31:14;7.50;99.90
50067;DHT22;35952;52.524;13.340;2023-12-20T01:33:39;7.50;99.90
50067;DHT22;35952;52.524;13.340;2023-12-20T01:36:05;7.50;99.90
50067;DHT22;35952;52.524;13.340;2023-12-20T01:38:30;7.50;99.90
50067;DHT22;35952;52.524;13.340;2023-12-20T01:40:56;7.50;99.90
50067;DHT22;35952;52.524;13.340;2023-12-20T01:43:21;7.50;99.90
50067;DHT22;35952;52.524;13.340;2023-12-20T01:45:47;7.60;99.90
50067;DHT22;35952;52.524;13.340;2023-12-20T01:48:14;7.60;99.90
50067;DHT22;35952;52.524;13.340;2023-12-20T01:50:41;7.50;99.90
50067;DHT22;35952;52.524;13.340;2023-12-20T01:53:09;7.50;99.90
50067;DHT22;35952;52.524;13.340;2023-12-20T01:55:37;7.50;99.90
50067;DHT22;35952;52.524;13.340;2023-12-20T01:58:05;7.50;99.90
50067;DHT22;35952;52.524;13.340;2023-12-20T02:00:31;7.50;99.90
50067;DHT22;35952;52.524;13.340;2023-12-20T02:02:57;7.60;99.90
50067;DHT22;35952;52.524;13.340;2023-12-20T02:05:26;7.60;99.90
50067;DHT22;35952;52.524;13.340;2023-12-20T02:07:53;7.60;99.90
50067;DHT22;35952;52.524;13.340;2023-12-20T02:10:18;7.60;99.90
50067;DHT22;35952;52.524;13.340;2023-12-20T02:12:44;7.50;99.90
50067;DHT22;35952;52.524;13.340;2023-12-20T02:15:10;7.50;99.90
50067;DHT22;35952;52.524;13.340;2023-12-20T02:17:59;7.50;99.90
50067;DHT22;35952;52.524;13.340;2023-12-20T02:20:25;7.50;99.90
50067;DHT22;35952;52.524;13.340;2023-12-20T02:22:50;7.50;99.90
50067;DHT22;35952;52.524;13.340;2023-12-20T02:25:16;7.50;99.90
50067;DHT22;35952;52.524;13.340;2023-12-20T02:27:41;7.50;99.90
50067;DHT22;35952;52.524;13.340;2023-12-20T02:30:07;7.50;99.90
50067;DHT22;35952;52.524;13.340;2023-12-20T02:32:34;7.50;99.90
50067;DHT22;35952;52.524;13.340;2023-12-20T02:34:59;7.50;99.90
50067;DHT22;35952;52.524;13.340;2023-12-20T02:37:25;7.50;99.90
50067;DHT22;35952;52.524;13.340;2023-12-20T02:39:50;7.50;99.90
50067;DHT22;35952;52.524;13.340;2023-12-20T02:42:16;7.40;99.90
50067;DHT22;35952;52.524;13.340;2023-12-20T02:44:41;7.40;99.90
50067;DHT22;35952;52.524;13.340;2023-12-20T02:47:07;7.50;99.90
50067;DHT22;35952;52.524;13.340;2023-12-20T02:49:32;7.50;99.90
50067;DHT22;35952;52.524;13.340;2023-12-20T02:51:58;7.50;99.90
50067;DHT22;35952;52.524;13.340;2023-12-20T02:54:23;7.50;99.90
50067;DHT22;35952;52.524;13.340;2023-12-20T02:56:49;7.50;99.90
50067;DHT22;35952;52.524;13.340;2023-12-20T02:59:14;7.50;99.90
50067;DHT22;35952;52.524;13.340;2023-12-20T03:01:44;7.50;99.90
50067;DHT22;35952;52.524;13.340;2023-12-20T03:04:10;7.50;99.90
50067;DHT22;35952;52.524;13.340;2023-12-20T03:06:36;7.50;99.90
50067;DHT22;35952;52.524;13.340;2023-12-20T03:09:02;7.50;99.90
50067;DHT22;35952;52.524;13.340;2023-12-20T03:11:27;7.50;99.90
50067;DHT22;35952;52.524;13.340;2023-12-20T03:13:54;7.40;99.90
50067;DHT22;35952;52.524;13.340;2023-12-20T03:16:19;7.30;99.90
50067;DHT22;35952;52.524;13.340;2023-12-20T03:18:45;7.30;99.90
50067;DHT22;35952;52.524;13.340;2023-12-20T03:21:10;7.40;99.90
50067;DHT22;35952;52.524;13.340;2023-12-20T03:23:36;7.50;99.90
50067;DHT22;35952;52.524;13.340;2023-12-20T03:26:01;7.50;99.90
50067;DHT22;35952;52.524;13.340;2023-12-20T03:28:27;7.40;99.90
50067;DHT22;35952;52.524;13.340;2023-12-20T03:30:53;7.50;99.90
50067;DHT22;35952;52.524;13.340;2023-12-20T03:33:18;7.40;99.90
50067;DHT22;35952;52.524;13.340;2023-12-20T03:35:44;7.40;99.90
50067;DHT22;35952;52.524;13.340;2023-12-20T03:38:09;7.40;99.90
50067;DHT22;35952;52.524;13.340;2023-12-20T03:40:35;7.40;99.90
50067;DHT22;35952;52.524;13.340;2023-12-20T03:43:01;7.40;99.90
50067;DHT22;35952;52.524;13.340;2023-12-20T03:45:26;7.50;99.90
50067;DHT22;35952;52.524;13.340;2023-12-20T03:47:52;7.40;99.90
50067;DHT22;35952;52.524;13.340;2023-12-20T03:50:26;7.40;99.90
50067;DHT22;35952;52.524;13.340;2023-12-20T03:52:52;7.30;99.90
50067;DHT22;35952;52.524;13.340;2023-12-20T03:55:18;7.30;99.90
50067;DHT22;35952;52.524;13.340;2023-12-20T03:57:43;7.30;99.90
50067;DHT22;35952;52.524;13.340;2023-12-20T04:00:09;7.30;99.90
50067;DHT22;35952;52.524;13.340;2023-12-20T04:02:39;7.30;99.90
50067;DHT22;35952;52.524;13.340;2023-12-20T04:05:05;7.20;99.90
50067;DHT22;35952;52.524;13.340;2023-12-20T04:07:31;7.20;99.90
50067;DHT22;35952;52.524;13.340;2023-12-20T04:09:57;7.20;99.90
50067;DHT22;35952;52.524;13.340;2023-12-20T04:12:22;7.20;99.90
50067;DHT22;35952;52.524;13.340;2023-12-20T04:14:48;7.20;99.90
50067;DHT22;35952;52.524;13.340;2023-12-20T04:17:14;7.20;99.90
50067;DHT22;35952;52.524;13.340;2023-12-20T04:19:41;7.20;99.90
50067;DHT22;35952;52.524;13.340;2023-12-20T04:22:07;7.10;99.90
50067;DHT22;35952;52.524;13.340;2023-12-20T04:24:32;7.10;99.90
50067;DHT22;35952;52.524;13.340;2023-12-20T04:26:58;7.10;99.90
50067;DHT22;35952;52.524;13.340;2023-12-20T04:29:23;7.00;99.90
50067;DHT22;35952;52.524;13.340;2023-12-20T04:31:48;7.00;99.90
50067;DHT22;35952;52.524;13.340;2023-12-20T04:34:17;6.90;99.90
50067;DHT22;35952;52.524;13.340;2023-12-20T04:36:42;6.90;99.90
50067;DHT22;35952;52.524;13.340;2023-12-20T04:39:08;6.80;99.90
50067;DHT22;35952;52.524;13.340;2023-12-20T04:41:33;6.80;99.90
50067;DHT22;35952;52.524;13.340;2023-12-20T04:43:59;6.80;99.90
50067;DHT22;35952;52.524;13.340;2023-12-20T04:46:25;6.80;99.90
50067;DHT22;35952;52.524;13.340;2023-12-20T04:48:51;6.80;99.90
50067;DHT22;35952;52.524;13.340;2023-12-20T04:51:16;6.80;99.90
50067;DHT22;35952;52.524;13.340;2023-12-20T04:53:42;6.80;99.90
50067;DHT22;35952;52.524;13.340;2023-12-20T04:56:07;6.70;99.90
50067;DHT22;35952;52.524;13.340;2023-12-20T04:58:33;6.60;99.90
50067;DHT22;35952;52.524;13.340;2023-12-20T05:00:58;6.70;99.90
50067;DHT22;35952;52.524;13.340;2023-12-20T05:03:24;6.70;99.90
50067;DHT22;35952;52.524;13.340;2023-12-20T05:05:49;6.70;99.90
50067;DHT22;35952;52.524;13.340;2023-12-20T05:08:15;6.70;99.90
50067;DHT22;35952;52.524;13.340;2023-12-20T05:10:40;6.70;99.90
50067;DHT22;35952;52.524;13.340;2023-12-20T05:13:06;6.70;99.90
50067;DHT22;35952;52.524;13.340;2023-12-20T05:15:32;6.70;99.90
50067;DHT22;35952;52.524;13.340;2023-12-20T05:17:57;6.80;99.90
50067;DHT22;35952;52.524;13.340;2023-12-20T05:20:23;6.80;99.90
50067;DHT22;35952;52.524;13.340;2023-12-20T05:22:49;6.70;99.90
50067;DHT22;35952;52.524;13.340;2023-12-20T05:25:14;6.60;99.90
50067;DHT22;35952;52.524;13.340;2023-12-20T05:27:40;6.50;99.90
50067;DHT22;35952;52.524;13.340;2023-12-20T05:30:06;6.50;99.90
50067;DHT22;35952;52.524;13.340;2023-12-20T05:32:31;6.40;99.90
50067;DHT22;35952;52.524;13.340;2023-12-20T05:34:57;6.30;99.90
50067;DHT22;35952;52.524;13.340;2023-12-20T05:37:22;6.30;99.90
50067;DHT22;35952;52.524;13.340;2023-12-20T05:39:48;6.30;99.90
50067;DHT22;35952;52.524;13.340;2023-12-20T05:42:13;6.30;99.90
50067;DHT22;35952;52.524;13.340;2023-12-20T05:44:39;6.20;99.90
50067;DHT22;35952;52.524;13.340;2023-12-20T05:47:04;6.20;99.90
50067;DHT22;35952;52.524;13.340;2023-12-20T05:49:30;6.10;99.90
50067;DHT22;35952;52.524;13.340;2023-12-20T05:51:55;6.10;99.90
50067;DHT22;35952;52.524;13.340;2023-12-20T05:54:21;6.10;99.90
50067;DHT22;35952;52.524;13.340;2023-12-20T05:56:47;6.00;99.90
50067;DHT22;35952;52.524;13.340;2023-12-20T05:59:12;6.00;99.90
50067;DHT22;35952;52.524;13.340;2023-12-20T06:01:38;6.00;99.90
50067;DHT22;35952;52.524;13.340;2023-12-20T06:04:04;6.00;99.90
50067;DHT22;35952;52.524;13.340;2023-12-20T06:06:29;5.90;99.90
50067;DHT22;35952;52.524;13.340;2023-12-20T06:08:55;5.90;99.90
50067;DHT22;35952;52.524;13.340;2023-12-20T06:11:21;6.00;99.90
50067;DHT22;35952;52.524;13.340;2023-12-20T06:13:46;6.00;99.90
50067;DHT22;35952;52.524;13.340;2023-12-20T06:16:12;6.00;99.90
50067;DHT22;35952;52.524;13.340;2023-12-20T06:18:38;6.00;99.90
50067;DHT22;35952;52.524;13.340;2023-12-20T06:21:03;6.00;99.90
50067;DHT22;35952;52.524;13.340;2023-12-20T06:23:29;6.00;99.90
50067;DHT22;35952;52.524;13.340;2023-12-20T06:25:55;5.90;99.90
50067;DHT22;35952;52.524;13.340;2023-12-20T06:28:20;5.90;99.90
50067;DHT22;35952;52.524;13.340;2023-12-20T06:30:46;5.80;99.90
50067;DHT22;35952;52.524;13.340;2023-12-20T06:33:14;5.80;99.90
50067;DHT22;35952;52.524;13.340;2023-12-20T06:35:40;5.80;99.90
50067;DHT22;35952;52.524;13.340;2023-12-20T06:38:05;5.90;99.90
50067;DHT22;35952;52.524;13.340;2023-12-20T06:40:31;5.90;99.90
50067;DHT22;35952;52.524;13.340;2023-12-20T06:42:56;6.00;99.90
50067;DHT22;35952;52.524;13.340;2023-12-20T06:45:22;5.90;99.90
50067;DHT22;35952;52.524;13.340;2023-12-20T06:47:47;5.90;99.90
50067;DHT22;35952;52.524;13.340;2023-12-20T06:50:13;5.90;99.90
50067;DHT22;35952;52.524;13.340;2023-12-20T06:52:38;5.90;99.90
50067;DHT22;35952;52.524;13.340;2023-12-20T06:55:04;5.90;99.90
50067;DHT22;35952;52.524;13.340;2023-12-20T06:57:29;6.00;99.90
50067;DHT22;35952;52.524;13.340;2023-12-20T06:59:55;6.00;99.90
50067;DHT22;35952;52.524;13.340;2023-12-20T07:02:21;5.90;99.90
50067;DHT22;35952;52.524;13.340;2023-12-20T07:04:47;6.00;99.90
50067;DHT22;35952;52.524;13.340;2023-12-20T07:07:13;6.00;99.90
50067;DHT22;35952;52.524;13.340;2023-12-20T07:09:38;6.00;99.90
50067;DHT22;35952;52.524;13.340;2023-12-20T07:12:04;6.00;99.90
50067;DHT22;35952;52.524;13.340;2023-12-20T07:14:30;6.00;99.90
50067;DHT22;35952;52.524;13.340;2023-12-20T07:16:55;6.00;99.90
50067;DHT22;35952;52.524;13.340;2023-12-20T07:19:21;6.10;99.90
50067;DHT22;35952;52.524;13.340;2023-12-20T07:21:46;6.10;99.90
50067;DHT22;35952;52.524;13.340;2023-12-20T07:24:12;6.10;99.90
50067;DHT22;35952;52.524;13.340;2023-12-20T07:26:37;6.00;99.90
50067;DHT22;35952;52.524;13.340;2023-12-20T07:29:04;6.10;99.90
50067;DHT22;35952;52.524;13.340;2023-12-20T07:31:29;6.10;99.90
50067;DHT22;35952;52.524;13.340;2023-12-20T07:33:55;6.10;99.90
50067;DHT22;35952;52.524;13.340;2023-12-20T07:36:20;6.10;99.90
50067;DHT22;35952;52.524;13.340;2023-12-20T07:38:46;6.10;99.90
50067;DHT22;35952;52.524;13.340;2023-12-20T07:41:12;6.20;99.90
50067;DHT22;35952;52.524;13.340;2023-12-20T07:43:38;6.10;99.90
50067;DHT22;35952;52.524;13.340;2023-12-20T07:46:07;6.20;99.90
50067;DHT22;35952;52.524;13.340;2023-12-20T07:48:36;6.10;99.90
50067;DHT22;35952;52.524;13.340;2023-12-20T07:51:02;6.10;99.90
50067;DHT22;35952;52.524;13.340;2023-12-20T07:53:28;6.10;99.90
50067;DHT22;35952;52.524;13.340;2023-12-20T07:55:54;6.20;99.90
50067;DHT22;35952;52.524;13.340;2023-12-20T07:58:19;6.10;99.90
50067;DHT22;35952;52.524;13.340;2023-12-20T08:00:45;6.20;99.90
50067;DHT22;35952;52.524;13.340;2023-12-20T08:03:10;6.20;99.90
50067;DHT22;35952;52.524;13.340;2023-12-20T08:05:36;6.20;99.90
50067;DHT22;35952;52.524;13.340;2023-12-20T08:08:02;6.20;99.90
50067;DHT22;35952;52.524;13.340;2023-12-20T08:10:28;6.20;99.90
50067;DHT22;35952;52.524;13.340;2023-12-20T08:12:55;6.20;99.90
50067;DHT22;35952;52.524;13.340;2023-12-20T08:15:20;6.30;99.90
50067;DHT22;35952;52.524;13.340;2023-12-20T08:17:46;6.30;99.90
50067;DHT22;35952;52.524;13.340;2023-12-20T08:20:11;6.30;99.90
50067;DHT22;35952;52.524;13.340;2023-12-20T08:22:37;6.40;99.90
50067;DHT22;35952;52.524;13.340;2023-12-20T08:25:03;6.30;99.90
50067;DHT22;35952;52.524;13.340;2023-12-20T08:27:28;6.30;99.90
50067;DHT22;35952;52.524;13.340;2023-12-20T08:29:54;6.30;99.90
50067;DHT22;35952;52.524;13.340;2023-12-20T08:32:19;6.30;99.90
50067;DHT22;35952;52.524;13.340;2023-12-20T08:34:45;6.30;99.90
50067;DHT22;35952;52.524;13.340;2023-12-20T08:37:10;6.40;99.90
50067;DHT22;35952;52.524;13.340;2023-12-20T08:39:35;6.40;99.90
50067;DHT22;35952;52.524;13.340;2023-12-20T08:42:01;6.50;99.90
50067;DHT22;35952;52.524;13.340;2023-12-20T08:44:26;6.50;99.90
50067;DHT22;35952;52.524;13.340;2023-12-20T08:46:52;6.50;99.90
50067;DHT22;35952;52.524;13.340;2023-12-20T08:49:18;6.60;99.90
50067;DHT22;35952;52.524;13.340;2023-12-20T08:51:43;6.60;99.90
50067;DHT22;35952;52.524;13.340;2023-12-20T08:54:09;6.60;99.90
50067;DHT22;35952;52.524;13.340;2023-12-20T08:56:34;6.60;99.90
50067;DHT22;35952;52.524;13.340;2023-12-20T08:59:00;6.70;99.90
50067;DHT22;35952;52.524;13.340;2023-12-20T09:01:25;6.70;99.90
50067;DHT22;35952;52.524;13.340;2023-12-20T09:03:51;6.70;99.90
50067;DHT22;35952;52.524;13.340;2023-12-20T09:06:16;6.70;99.90
50067;DHT22;35952;52.524;13.340;2023-12-20T09:08:42;6.70;99.90
50067;DHT22;35952;52.524;13.340;2023-12-20T09:11:07;6.80;99.90
50067;DHT22;35952;52.524;13.340;2023-12-20T09:13:33;7.00;99.90
50067;DHT22;35952;52.524;13.340;2023-12-20T09:15:58;7.00;99.90
50067;DHT22;35952;52.524;13.340;2023-12-20T09:18:24;7.10;99.90
50067;DHT22;35952;52.524;13.340;2023-12-20T09:20:50;7.10;99.90
50067;DHT22;35952;52.524;13.340;2023-12-20T09:23:15;7.00;99.90
50067;DHT22;35952;52.524;13.340;2023-12-20T09:25:42;7.00;99.90
50067;DHT22;35952;52.524;13.340;2023-12-20T09:28:07;7.00;99.90
50067;DHT22;35952;52.524;13.340;2023-12-20T09:30:33;7.00;99.90
50067;DHT22;35952;52.524;13.340;2023-12-20T09:32:58;7.00;99.90
50067;DHT22;35952;52.524;13.340;2023-12-20T09:35:24;7.00;99.90
50067;DHT22;35952;52.524;13.340;2023-12-20T09:37:51;7.00;99.90
50067;DHT22;35952;52.524;13.340;2023-12-20T09:40:19;7.10;99.90
50067;DHT22;35952;52.524;13.340;2023-12-20T09:42:57;7.10;99.90
50067;DHT22;35952;52.524;13.340;2023-12-20T09:45:23;7.00;99.90
50067;DHT22;35952;52.524;13.340;2023-12-20T09:47:53;7.10;99.90
50067;DHT22;35952;52.524;13.340;2023-12-20T09:50:20;7.10;99.90
50067;DHT22;35952;52.524;13.340;2023-12-20T09:52:50;7.10;99.90
50067;DHT22;35952;52.524;13.340;2023-12-20T09:55:18;7.10;99.90
50067;DHT22;35952;52.524;13.340;2023-12-20T09:57:44;7.10;99.90
50067;DHT22;35952;52.524;13.340;2023-12-20T10:00:11;7.10;99.90
50067;DHT22;35952;52.524;13.340;2023-12-20T10:02:38;7.10;99.90
50067;DHT22;35952;52.524;13.340;2023-12-20T10:05:08;7.10;99.90
50067;DHT22;35952;52.524;13.340;2023-12-20T10:07:35;7.10;99.90
50067;DHT22;35952;52.524;13.340;2023-12-20T10:10:01;7.10;99.90
50067;DHT22;35952;52.524;13.340;2023-12-20T10:12:27;7.10;99.90
50067;DHT22;35952;52.524;13.340;2023-12-20T10:14:53;7.20;99.90
50067;DHT22;35952;52.524;13.340;2023-12-20T10:17:18;7.20;99.90
50067;DHT22;35952;52.524;13.340;2023-12-20T10:19:44;7.20;99.90
50067;DHT22;35952;52.524;13.340;2023-12-20T10:22:10;7.20;99.90
50067;DHT22;35952;52.524;13.340;2023-12-20T10:24:35;7.20;99.90
50067;DHT22;35952;52.524;13.340;2023-12-20T10:27:02;7.20;99.90
50067;DHT22;35952;52.524;13.340;2023-12-20T10:29:37;7.10;99.90
50067;DHT22;35952;52.524;13.340;2023-12-20T10:32:22;7.10;99.90
50067;DHT22;35952;52.524;13.340;2023-12-20T10:34:49;7.10;99.90
50067;DHT22;35952;52.524;13.340;2023-12-20T10:37:14;7.10;99.90
50067;DHT22;35952;52.524;13.340;2023-12-20T10:39:40;7.10;99.90
50067;DHT22;35952;52.524;13.340;2023-12-20T10:42:11;7.10;99.90
50067;DHT22;35952;52.524;13.340;2023-12-20T10:44:37;7.20;99.90
50067;DHT22;35952;52.524;13.340;2023-12-20T10:47:03;7.20;99.90
50067;DHT22;35952;52.524;13.340;2023-12-20T10:49:31;7.30;99.90
50067;DHT22;35952;52.524;13.340;2023-12-20T10:51:59;7.40;99.90
50067;DHT22;35952;52.524;13.340;2023-12-20T10:54:27;7.40;99.90
50067;DHT22;35952;52.524;13.340;2023-12-20T10:56:53;7.30;99.90
50067;DHT22;35952;52.524;13.340;2023-12-20T10:59:20;7.40;99.90
50067;DHT22;35952;52.524;13.340;2023-12-20T11:01:48;7.30;99.90
50067;DHT22;35952;52.524;13.340;2023-12-20T11:04:20;7.30;99.90
50067;DHT22;35952;52.524;13.340;2023-12-20T11:06:52;7.30;99.90
50067;DHT22;35952;52.524;13.340;2023-12-20T11:09:24;7.30;99.90
50067;DHT22;35952;52.524;13.340;2023-12-20T11:12:15;7.40;99.90
50067;DHT22;35952;52.524;13.340;2023-12-20T11:14:51;7.40;99.90
50067;DHT22;35952;52.524;13.340;2023-12-20T11:17:18;7.40;99.90
50067;DHT22;35952;52.524;13.340;2023-12-20T11:20:04;7.30;99.90
50067;DHT22;35952;52.524;13.340;2023-12-20T11:22:31;7.40;99.90
50067;DHT22;35952;52.524;13.340;2023-12-20T11:25:06;7.30;99.90
50067;DHT22;35952;52.524;13.340;2023-12-20T11:27:36;7.30;99.90
50067;DHT22;35952;52.524;13.340;2023-12-20T11:30:05;7.20;99.90
50067;DHT22;35952;52.524;13.340;2023-12-20T11:32:35;7.30;99.90
50067;DHT22;35952;52.524;13.340;2023-12-20T11:35:18;7.30;99.90
50067;DHT22;35952;52.524;13.340;2023-12-20T11:37:45;7.20;99.90
50067;DHT22;35952;52.524;13.340;2023-12-20T11:40:16;7.20;99.90
50067;DHT22;35952;52.524;13.340;2023-12-20T11:42:49;7.20;99.90
50067;DHT22;35952;52.524;13.340;2023-12-20T11:45:19;7.30;99.90
50067;DHT22;35952;52.524;13.340;2023-12-20T11:47:48;7.20;99.90
50067;DHT22;35952;52.524;13.340;2023-12-20T11:50:21;7.20;99.90
50067;DHT22;35952;52.524;13.340;2023-12-20T11:52:47;7.20;99.90
50067;DHT22;35952;52.524;13.340;2023-12-20T11:55:13;7.20;99.90
50067;DHT22;35952;52.524;13.340;2023-12-20T11:57:39;7.20;99.90
50067;DHT22;35952;52.524;13.340;2023-12-20T12:00:05;7.20;99.90
50067;DHT22;35952;52.524;13.340;2023-12-20T12:02:31;7.20;99.90
50067;DHT22;35952;52.524;13.340;2023-12-20T12:04:57;7.30;99.90
50067;DHT22;35952;52.524;13.340;2023-12-20T12:07:24;7.30;99.90
50067;DHT22;35952;52.524;13.340;2023-12-20T12:09:53;7.40;99.90
50067;DHT22;35952;52.524;13.340;2023-12-20T12:12:19;7.30;99.90
50067;DHT22;35952;52.524;13.340;2023-12-20T12:14:45;7.40;99.90
50067;DHT22;35952;52.524;13.340;2023-12-20T12:17:14;7.50;99.90
50067;DHT22;35952;52.524;13.340;2023-12-20T12:19:40;7.50;99.90
50067;DHT22;35952;52.524;13.340;2023-12-20T12:22:13;7.40;99.90
50067;DHT22;35952;52.524;13.340;2023-12-20T12:24:43;7.40;99.90
50067;DHT22;35952;52.524;13.340;2023-12-20T12:27:10;7.40;99.90
50067;DHT22;35952;52.524;13.340;2023-12-20T12:29:36;7.50;99.90
50067;DHT22;35952;52.524;13.340;2023-12-20T12:32:08;7.40;99.90
50067;DHT22;35952;52.524;13.340;2023-12-20T12:34:35;7.30;99.90
50067;DHT22;35952;52.524;13.340;2023-12-20T12:37:01;7.20;99.90
50067;DHT22;35952;52.524;13.340;2023-12-20T12:39:27;7.10;99.90
50067;DHT22;35952;52.524;13.340;2023-12-20T12:41:56;7.20;99.90
50067;DHT22;35952;52.524;13.340;2023-12-20T12:44:22;7.10;99.90
50067;DHT22;35952;52.524;13.340;2023-12-20T12:46:50;7.00;99.90
50067;DHT22;35952;52.524;13.340;2023-12-20T12:49:16;7.00;99.90
50067;DHT22;35952;52.524;13.340;2023-12-20T12:51:42;6.90;99.90
50067;DHT22;35952;52.524;13.340;2023-12-20T12:54:09;6.90;99.90
50067;DHT22;35952;52.524;13.340;2023-12-20T12:56:38;6.80;99.90
50067;DHT22;35952;52.524;13.340;2023-12-20T12:59:04;6.80;99.90
50067;DHT22;35952;52.524;13.340;2023-12-20T13:01:31;6.80;99.90
50067;DHT22;35952;52.524;13.340;2023-12-20T13:03:56;6.90;99.90
50067;DHT22;35952;52.524;13.340;2023-12-20T13:06:22;6.90;99.90
50067;DHT22;35952;52.524;13.340;2023-12-20T13:08:47;6.90;99.90
50067;DHT22;35952;52.524;13.340;2023-12-20T13:11:13;6.90;99.90
50067;DHT22;35952;52.524;13.340;2023-12-20T13:13:38;6.90;99.90
50067;DHT22;35952;52.524;13.340;2023-12-20T13:16:04;6.80;99.90
50067;DHT22;35952;52.524;13.340;2023-12-20T13:18:30;6.80;99.90
50067;DHT22;35952;52.524;13.340;2023-12-20T13:20:55;6.80;99.90
50067;DHT22;35952;52.524;13.340;2023-12-20T13:23:21;6.70;99.90
50067;DHT22;35952;52.524;13.340;2023-12-20T13:25:46;6.50;99.90
50067;DHT22;35952;52.524;13.340;2023-12-20T13:28:12;6.20;99.90
50067;DHT22;35952;52.524;13.340;2023-12-20T13:30:38;6.10;99.90
50067;DHT22;35952;52.524;13.340;2023-12-20T13:33:04;6.00;99.90
50067;DHT22;35952;52.524;13.340;2023-12-20T13:35:30;5.90;99.90
50067;DHT22;35952;52.524;13.340;2023-12-20T13:37:57;5.90;99.90
50067;DHT22;35952;52.524;13.340;2023-12-20T13:40:23;5.80;99.90
50067;DHT22;35952;52.524;13.340;2023-12-20T13:42:48;5.70;99.90
50067;DHT22;35952;52.524;13.340;2023-12-20T13:45:15;5.70;99.90
50067;DHT22;35952;52.524;13.340;2023-12-20T13:47:40;5.70;99.90
50067;DHT22;35952;52.524;13.340;2023-12-20T13:50:06;5.70;99.90
50067;DHT22;35952;52.524;13.340;2023-12-20T13:52:32;5.70;99.90
50067;DHT22;35952;52.524;13.340;2023-12-20T13:54:57;5.70;99.90
50067;DHT22;35952;52.524;13.340;2023-12-20T13:57:23;5.60;99.90
50067;DHT22;35952;52.524;13.340;2023-12-20T13:59:48;5.50;99.90
50067;DHT22;35952;52.524;13.340;2023-12-20T14:02:14;5.50;99.90
50067;DHT22;35952;52.524;13.340;2023-12-20T14:04:40;5.50;99.90
50067;DHT22;35952;52.524;13.340;2023-12-20T14:07:07;5.60;99.90
50067;DHT22;35952;52.524;13.340;2023-12-20T14:09:33;5.60;99.90
50067;DHT22;35952;52.524;13.340;2023-12-20T14:11:59;5.60;99.90
50067;DHT22;35952;52.524;13.340;2023-12-20T14:14:24;5.70;99.90
50067;DHT22;35952;52.524;13.340;2023-12-20T14:16:50;5.70;99.90
50067;DHT22;35952;52.524;13.340;2023-12-20T14:19:16;5.70;99.90
50067;DHT22;35952;52.524;13.340;2023-12-20T14:21:42;5.70;99.90
50067;DHT22;35952;52.524;13.340;2023-12-20T14:24:07;5.70;99.90
50067;DHT22;35952;52.524;13.340;2023-12-20T14:26:33;5.70;99.90
50067;DHT22;35952;52.524;13.340;2023-12-20T14:28:58;5.70;99.90
50067;DHT22;35952;52.524;13.340;2023-12-20T14:31:24;5.80;99.90
50067;DHT22;35952;52.524;13.340;2023-12-20T14:33:50;5.80;99.90
50067;DHT22;35952;52.524;13.340;2023-12-20T14:36:16;5.80;99.90
50067;DHT22;35952;52.524;13.340;2023-12-20T14:38:43;5.80;99.90
50067;DHT22;35952;52.524;13.340;2023-12-20T14:41:09;5.90;99.90
50067;DHT22;35952;52.524;13.340;2023-12-20T14:43:34;5.90;99.90
50067;DHT22;35952;52.524;13.340;2023-12-20T14:46:00;5.80;99.90
50067;DHT22;35952;52.524;13.340;2023-12-20T14:48:25;5.80;99.90
50067;DHT22;35952;52.524;13.340;2023-12-20T14:50:53;5.90;99.90
50067;DHT22;35952;52.524;13.340;2023-12-20T14:53:19;6.00;99.90
50067;DHT22;35952;52.524;13.340;2023-12-20T14:55:44;6.00;99.90
50067;DHT22;35952;52.524;13.340;2023-12-20T14:58:10;5.90;99.90
50067;DHT22;35952;52.524;13.340;2023-12-20T15:00:36;5.90;99.90
50067;DHT22;35952;52.524;13.340;2023-12-20T15:03:01;6.00;99.90
50067;DHT22;35952;52.524;13.340;2023-12-20T15:05:29;6.00;99.90
50067;DHT22;35952;52.524;13.340;2023-12-20T15:07:54;6.00;99.90
50067;DHT22;35952;52.524;13.340;2023-12-20T15:10:20;5.90;99.90
50067;DHT22;35952;52.524;13.340;2023-12-20T15:12:46;6.00;99.90
50067;DHT22;35952;52.524;13.340;2023-12-20T15:15:11;6.00;99.90
50067;DHT22;35952;52.524;13.340;2023-12-20T15:17:37;5.90;99.90
50067;DHT22;35952;52.524;13.340;2023-12-20T15:20:03;6.00;99.90
50067;DHT22;35952;52.524;13.340;2023-12-20T15:22:30;5.90;99.90
50067;DHT22;35952;52.524;13.340;2023-12-20T15:24:56;6.00;99.90